createdAt,value
2018-12-22T00:00:43.530Z,5.40
2018-12-22T00:01:43.494Z,5.10
2018-12-22T00:02:43.453Z,5.20
2018-12-22T00:03:43.416Z,5.20
2018-12-22T00:04:43.381Z,5.00
2018-12-22T00:05:43.332Z,4.80
2018-12-22T00:06:43.295Z,4.50
2018-12-22T00:07:43.256Z,5.30
2018-12-22T00:08:43.215Z,5.00
2018-12-22T00:09:43.184Z,5.50
2018-12-22T00:10:43.144Z,5.50
2018-12-22T00:11:50.256Z,5.00
2018-12-22T00:13:47.008Z,5.10
2018-12-22T00:14:46.950Z,5.20
2018-12-22T00:16:50.860Z,4.90
2018-12-22T00:17:50.796Z,4.80
2018-12-22T00:19:54.705Z,4.90
2018-12-22T00:20:54.749Z,5.20
2018-12-22T00:22:47.462Z,4.60
2018-12-22T00:23:47.528Z,4.60
2018-12-22T00:25:51.355Z,4.60
2018-12-22T00:26:51.294Z,4.60
2018-12-22T00:28:55.193Z,4.80
2018-12-22T00:29:55.150Z,5.30
2018-12-22T00:31:59.067Z,5.00
2018-12-22T00:32:59.003Z,4.70
2018-12-22T00:35:02.890Z,4.70
2018-12-22T00:36:02.850Z,5.30
2018-12-22T00:38:06.768Z,5.00
2018-12-22T00:39:06.703Z,4.80
2018-12-22T00:41:10.618Z,4.70
2018-12-22T00:42:10.552Z,4.50
2018-12-22T00:44:14.440Z,4.80
2018-12-22T00:45:14.394Z,4.70
2018-12-22T00:47:18.308Z,4.90
2018-12-22T00:48:18.240Z,4.50
2018-12-22T00:50:22.128Z,4.60
2018-12-22T00:51:22.082Z,5.10
2018-12-22T00:53:25.995Z,5.00
2018-12-22T00:54:25.931Z,4.90
2018-12-22T00:56:29.825Z,5.00
2018-12-22T00:57:29.782Z,4.70
2018-12-22T00:59:33.696Z,5.40
2018-12-22T01:00:33.633Z,4.90
2018-12-22T01:02:26.460Z,4.90
2018-12-22T01:03:26.419Z,4.60
2018-12-22T01:05:30.325Z,5.20
2018-12-22T01:06:30.255Z,5.10
2018-12-22T01:08:34.167Z,5.40
2018-12-22T01:09:34.104Z,4.90
2018-12-22T01:11:37.994Z,4.80
2018-12-22T01:12:37.953Z,4.80
2018-12-22T01:14:41.863Z,5.10
2018-12-22T01:15:41.802Z,5.40
2018-12-22T01:17:45.686Z,5.60
2018-12-22T01:18:45.647Z,5.60
2018-12-22T01:20:49.565Z,5.10
2018-12-22T01:21:49.493Z,5.50
2018-12-22T01:23:53.415Z,5.50
2018-12-22T01:24:53.336Z,5.30
2018-12-22T01:26:57.246Z,5.40
2018-12-22T01:27:57.184Z,5.50
2018-12-22T01:30:01.106Z,5.80
2018-12-22T01:31:01.029Z,5.50
2018-12-22T01:32:53.859Z,5.40
2018-12-22T01:33:53.815Z,5.10
2018-12-22T01:35:57.752Z,4.90
2018-12-22T01:36:57.685Z,5.00
2018-12-22T01:39:01.600Z,5.40
2018-12-22T01:40:01.537Z,5.10
2018-12-22T01:42:05.424Z,5.50
2018-12-22T01:43:05.385Z,4.50
2018-12-22T01:45:09.303Z,4.90
2018-12-22T01:46:09.231Z,5.10
2018-12-22T01:48:13.122Z,4.70
2018-12-22T01:49:13.099Z,5.20
2018-12-22T01:51:16.988Z,4.90
2018-12-22T01:52:16.926Z,4.80
2018-12-22T01:54:20.842Z,4.80
2018-12-22T01:55:20.768Z,4.30
2018-12-22T01:57:24.665Z,4.90
2018-12-22T01:58:24.623Z,5.20
2018-12-22T02:00:28.529Z,5.20
2018-12-22T02:01:28.468Z,4.80
2018-12-22T02:03:32.368Z,5.10
2018-12-22T02:04:32.329Z,4.70
2018-12-22T02:06:36.233Z,4.40
2018-12-22T02:07:36.171Z,4.80
2018-12-22T02:09:40.077Z,5.10
2018-12-22T02:10:40.017Z,4.70
2018-12-22T02:12:32.858Z,5.20
2018-12-22T02:13:32.797Z,5.20
2018-12-22T02:15:36.701Z,4.50
2018-12-22T02:16:36.642Z,4.30
2018-12-22T02:18:40.535Z,4.60
2018-12-22T02:19:40.486Z,4.60
2018-12-22T02:21:44.410Z,4.20
2018-12-22T02:22:44.336Z,4.20
2018-12-22T02:24:48.229Z,4.40
2018-12-22T02:25:48.177Z,4.90
2018-12-22T02:27:52.091Z,4.20
2018-12-22T02:28:56.580Z,4.80
2018-12-22T02:30:55.963Z,4.90
2018-12-22T02:31:55.902Z,3.90
2018-12-22T02:33:59.814Z,4.10
2018-12-22T02:34:59.785Z,4.30
2018-12-22T02:37:03.723Z,4.30
2018-12-22T02:38:03.630Z,3.90
2018-12-22T02:40:07.549Z,4.10
2018-12-22T02:41:07.477Z,4.20
2018-12-22T02:43:00.296Z,4.20
2018-12-22T02:44:00.253Z,4.30
2018-12-22T02:46:04.170Z,4.60
2018-12-22T02:47:04.105Z,4.40
2018-12-22T02:49:07.983Z,3.90
2018-12-22T02:50:07.949Z,4.10
2018-12-22T02:52:11.866Z,4.10
2018-12-22T02:53:11.786Z,3.90
2018-12-22T02:55:15.676Z,3.80
2018-12-22T02:56:15.637Z,4.30
2018-12-22T02:58:19.550Z,3.40
2018-12-22T02:59:19.481Z,3.70
2018-12-22T03:01:23.365Z,4.00
2018-12-22T03:02:23.326Z,4.10
2018-12-22T03:04:27.240Z,4.20
2018-12-22T03:05:27.175Z,4.10
2018-12-22T03:07:31.089Z,3.40
2018-12-22T03:08:31.022Z,3.20
2018-12-22T03:10:34.930Z,3.10
2018-12-22T03:11:34.862Z,3.60
2018-12-22T03:13:38.787Z,3.00
2018-12-22T03:14:38.715Z,3.00
2018-12-22T03:16:42.599Z,3.10
2018-12-22T03:17:42.556Z,3.30
2018-12-22T03:19:46.479Z,2.90
2018-12-22T03:20:46.413Z,3.20
2018-12-22T03:22:39.233Z,3.00
2018-12-22T03:23:39.194Z,3.00
2018-12-22T03:25:43.098Z,2.70
2018-12-22T03:26:43.033Z,2.90
2018-12-22T03:28:46.926Z,2.70
2018-12-22T03:29:46.877Z,2.70
2018-12-22T03:31:50.797Z,2.40
2018-12-22T03:32:50.733Z,2.50
2018-12-22T03:34:54.644Z,2.40
2018-12-22T03:35:54.575Z,2.30
2018-12-22T03:37:58.508Z,1.90
2018-12-22T03:38:58.422Z,2.10
2018-12-22T03:41:02.326Z,1.90
2018-12-22T03:42:02.268Z,2.00
2018-12-22T03:44:06.188Z,2.10
2018-12-22T03:45:06.125Z,1.80
2018-12-22T03:47:10.016Z,1.50
2018-12-22T03:48:09.969Z,1.40
2018-12-22T03:50:13.906Z,1.40
2018-12-22T03:51:13.833Z,1.50
2018-12-22T04:06:35.104Z,1.00
2018-12-22T04:07:35.035Z,1.10
2018-12-22T04:09:38.919Z,1.50
2018-12-22T04:10:38.871Z,1.70
2018-12-22T04:12:31.706Z,1.70
2018-12-22T04:13:31.743Z,1.80
2018-12-22T04:15:35.528Z,1.60
2018-12-22T04:16:35.482Z,1.90
2018-12-22T04:18:39.394Z,1.70
2018-12-22T04:19:39.323Z,2.00
2018-12-22T04:21:43.207Z,1.70
2018-12-22T04:22:43.169Z,1.80
2018-12-22T04:24:47.081Z,1.80
2018-12-22T04:25:47.016Z,1.50
2018-12-22T04:27:50.954Z,1.60
2018-12-22T04:28:50.861Z,1.50
2018-12-22T04:30:54.754Z,1.80
2018-12-22T04:31:54.706Z,1.90
2018-12-22T04:33:58.615Z,1.70
2018-12-22T04:34:58.551Z,1.70
2018-12-22T04:37:02.954Z,1.30
2018-12-22T04:38:02.894Z,1.40
2018-12-22T04:39:02.847Z,1.50
2018-12-22T04:40:02.808Z,1.70
2018-12-22T04:41:02.775Z,1.60
2018-12-22T04:42:02.725Z,1.50
2018-12-22T04:43:02.710Z,1.60
2018-12-22T04:44:02.652Z,1.70
2018-12-22T04:45:02.606Z,1.70
2018-12-22T04:46:02.570Z,1.50
2018-12-22T04:47:02.532Z,1.80
2018-12-22T04:48:02.487Z,1.50
2018-12-22T04:49:02.448Z,1.60
2018-12-22T04:50:02.410Z,1.80
2018-12-22T04:51:02.375Z,1.90
2018-12-22T04:52:02.334Z,1.80
2018-12-22T04:53:02.292Z,1.70
2018-12-22T04:54:02.251Z,2.00
2018-12-22T04:55:02.373Z,1.90
2018-12-22T04:56:02.172Z,1.90
2018-12-22T04:57:02.133Z,1.80
2018-12-22T04:58:02.098Z,2.00
2018-12-22T04:59:02.057Z,2.20
2018-12-22T05:00:02.018Z,2.00
2018-12-22T05:01:01.978Z,2.00
2018-12-22T05:02:01.939Z,1.70
2018-12-22T05:03:01.892Z,1.90
2018-12-22T05:04:01.865Z,2.00
2018-12-22T05:05:01.819Z,1.80
2018-12-22T05:06:01.780Z,2.00
2018-12-22T05:07:01.736Z,2.10
2018-12-22T05:08:01.701Z,1.80
2018-12-22T05:09:01.660Z,1.90
2018-12-22T05:10:01.622Z,1.80
2018-12-22T05:11:01.585Z,1.80
2018-12-22T05:12:01.544Z,1.80
2018-12-22T05:13:01.505Z,2.20
2018-12-22T05:14:01.464Z,1.90
2018-12-22T05:15:01.423Z,1.90
2018-12-22T05:16:01.385Z,1.80
2018-12-22T05:17:01.345Z,1.90
2018-12-22T05:18:01.308Z,1.70
2018-12-22T05:19:01.271Z,1.70
2018-12-22T05:20:01.233Z,1.80
2018-12-22T05:21:01.188Z,1.80
2018-12-22T05:22:01.151Z,1.90
2018-12-22T05:23:01.112Z,1.70
2018-12-22T05:24:01.073Z,2.00
2018-12-22T05:25:01.036Z,2.00
2018-12-22T05:26:00.990Z,2.10
2018-12-22T05:27:00.950Z,1.90
2018-12-22T05:28:00.911Z,1.90
2018-12-22T05:29:00.890Z,2.00
2018-12-22T05:30:00.837Z,2.10
2018-12-22T05:31:00.800Z,2.00
2018-12-22T05:32:00.762Z,2.40
2018-12-22T05:33:00.718Z,2.30
2018-12-22T05:34:00.678Z,2.40
2018-12-22T05:35:00.635Z,2.10
2018-12-22T05:36:00.601Z,2.50
2018-12-22T05:37:00.560Z,2.30
2018-12-22T05:38:00.570Z,2.70
2018-12-22T05:39:00.477Z,2.20
2018-12-22T05:40:00.516Z,2.10
2018-12-22T05:41:00.407Z,2.70
2018-12-22T05:42:00.365Z,2.40
2018-12-22T05:43:00.327Z,2.20
2018-12-22T05:44:00.289Z,2.40
2018-12-22T05:45:00.248Z,2.30
2018-12-22T05:46:00.220Z,2.20
2018-12-22T05:47:00.165Z,2.40
2018-12-22T05:48:00.125Z,2.70
2018-12-22T05:49:00.088Z,2.80
2018-12-22T05:50:00.050Z,2.60
2018-12-22T05:51:00.104Z,2.60
2018-12-22T05:51:59.967Z,2.50
2018-12-22T05:52:59.930Z,2.00
2018-12-22T05:53:59.895Z,2.70
2018-12-22T05:54:59.855Z,2.30
2018-12-22T05:55:59.816Z,2.40
2018-12-22T05:56:59.774Z,2.70
2018-12-22T05:57:59.735Z,2.70
2018-12-22T05:58:59.697Z,2.50
2018-12-22T06:00:00.732Z,2.70
2018-12-22T06:00:59.616Z,2.60
2018-12-22T06:01:59.579Z,2.30
2018-12-22T06:02:59.539Z,2.20
2018-12-22T06:03:59.502Z,1.90
2018-12-22T06:04:59.464Z,1.90
2018-12-22T06:05:59.420Z,1.60
2018-12-22T06:06:59.378Z,1.70
2018-12-22T06:07:59.345Z,1.40
2018-12-22T06:08:59.303Z,1.80
2018-12-22T06:09:59.264Z,1.60
2018-12-22T06:10:59.221Z,1.80
2018-12-22T06:12:07.834Z,1.50
2018-12-22T06:14:03.602Z,1.40
2018-12-22T06:15:03.536Z,1.50
2018-12-22T06:16:03.492Z,1.40
2018-12-22T06:17:03.453Z,1.60
2018-12-22T06:18:03.414Z,1.60
2018-12-22T06:19:03.374Z,1.60
2018-12-22T06:20:03.338Z,1.80
2018-12-22T06:21:03.297Z,1.60
2018-12-22T06:22:03.259Z,2.20
2018-12-22T06:23:03.219Z,2.00
2018-12-22T06:24:03.179Z,1.90
2018-12-22T06:25:03.139Z,1.90
2018-12-22T06:26:03.100Z,1.90
2018-12-22T06:27:03.062Z,2.10
2018-12-22T06:28:03.152Z,2.10
2018-12-22T06:29:02.984Z,2.30
2018-12-22T06:30:09.045Z,1.70
2018-12-22T06:31:02.898Z,2.60
2018-12-22T06:32:02.866Z,2.00
2018-12-22T06:33:02.823Z,2.20
2018-12-22T06:34:02.784Z,2.30
2018-12-22T06:35:02.745Z,2.60
2018-12-22T06:36:02.734Z,2.30
2018-12-22T06:37:02.664Z,1.80
2018-12-22T06:38:02.623Z,2.50
2018-12-22T06:39:02.582Z,2.20
2018-12-22T06:40:02.550Z,2.50
2018-12-22T06:41:02.508Z,2.30
2018-12-22T06:42:02.470Z,2.10
2018-12-22T06:43:02.429Z,2.50
2018-12-22T06:44:02.385Z,2.30
2018-12-22T06:45:02.351Z,2.20
2018-12-22T06:46:02.316Z,2.40
2018-12-22T06:47:02.271Z,2.20
2018-12-22T06:48:02.227Z,2.30
2018-12-22T06:49:02.189Z,2.20
2018-12-22T06:50:02.152Z,2.20
2018-12-22T06:51:02.110Z,2.00
2018-12-22T06:52:02.077Z,2.70
2018-12-22T06:53:02.036Z,2.80
2018-12-22T06:54:02.006Z,2.30
2018-12-22T06:55:01.955Z,2.40
2018-12-22T06:56:01.910Z,2.40
2018-12-22T06:57:01.879Z,2.10
2018-12-22T06:58:01.833Z,2.40
2018-12-22T06:59:01.802Z,2.50
2018-12-22T07:00:01.758Z,2.60
2018-12-22T07:01:01.716Z,2.40
2018-12-22T07:02:01.680Z,2.40
2018-12-22T07:03:01.636Z,2.70
2018-12-22T07:04:01.605Z,2.40
2018-12-22T07:05:02.586Z,2.00
2018-12-22T07:06:01.521Z,2.80
2018-12-22T07:07:01.505Z,2.50
2018-12-22T07:08:01.446Z,2.70
2018-12-22T07:09:01.400Z,2.60
2018-12-22T07:10:01.359Z,2.30
2018-12-22T07:11:01.316Z,2.10
2018-12-22T07:12:01.284Z,2.20
2018-12-22T07:13:01.250Z,2.80
2018-12-22T07:14:01.204Z,2.50
2018-12-22T07:15:01.246Z,2.50
2018-12-22T07:16:01.120Z,2.40
2018-12-22T07:17:01.084Z,2.40
2018-12-22T07:18:01.046Z,2.50
2018-12-22T07:19:01.009Z,2.40
2018-12-22T07:20:00.965Z,2.90
2018-12-22T07:21:00.931Z,2.30
2018-12-22T07:22:00.887Z,2.40
2018-12-22T07:23:00.844Z,2.30
2018-12-22T07:24:00.811Z,2.40
2018-12-22T07:25:00.770Z,2.30
2018-12-22T07:26:00.731Z,2.00
2018-12-22T07:27:00.693Z,2.20
2018-12-22T07:28:00.646Z,2.00
2018-12-22T07:29:00.612Z,2.00
2018-12-22T07:30:00.570Z,2.40
2018-12-22T07:31:00.529Z,1.90
2018-12-22T07:32:00.494Z,2.30
2018-12-22T07:33:00.454Z,2.10
2018-12-22T07:34:00.412Z,2.30
2018-12-22T07:35:00.370Z,2.10
2018-12-22T07:36:00.337Z,2.20
2018-12-22T07:37:00.298Z,2.30
2018-12-22T07:38:00.256Z,1.90
2018-12-22T07:39:00.216Z,1.60
2018-12-22T07:40:00.312Z,1.50
2018-12-22T07:41:00.138Z,1.90
2018-12-22T07:42:00.095Z,1.60
2018-12-22T07:43:00.052Z,1.70
2018-12-22T07:44:00.018Z,1.50
2018-12-22T07:44:59.976Z,1.60
2018-12-22T07:45:59.937Z,1.30
2018-12-22T07:46:59.901Z,1.00
2018-12-22T07:47:59.852Z,1.00
2018-12-22T07:48:59.814Z,1.10
2018-12-22T07:49:59.776Z,1.00
2018-12-22T07:50:59.738Z,1.10
2018-12-22T07:51:59.692Z,1.10
2018-12-22T07:52:59.659Z,0.80
2018-12-22T07:53:59.614Z,0.80
2018-12-22T07:54:59.571Z,0.90
2018-12-22T07:55:59.537Z,0.90
2018-12-22T07:56:59.497Z,0.90
2018-12-22T07:57:59.629Z,0.90
2018-12-22T07:58:59.416Z,0.80
2018-12-22T07:59:59.373Z,0.90
2018-12-22T08:00:59.332Z,0.90
2018-12-22T08:01:59.294Z,0.80
2018-12-22T08:02:59.248Z,0.80
2018-12-22T08:03:59.214Z,1.30
2018-12-22T08:04:59.172Z,0.80
2018-12-22T08:05:59.132Z,0.90
2018-12-22T08:06:59.090Z,1.00
2018-12-22T08:07:59.053Z,0.90
2018-12-22T08:08:59.011Z,1.10
2018-12-22T08:09:58.970Z,1.00
2018-12-22T08:10:58.934Z,1.10
2018-12-22T08:11:58.888Z,1.00
2018-12-22T08:12:58.847Z,1.10
2018-12-22T08:13:58.807Z,1.10
2018-12-22T08:14:58.762Z,0.90
2018-12-22T08:15:58.728Z,1.00
2018-12-22T08:16:58.687Z,0.90
2018-12-22T08:17:58.646Z,1.10
2018-12-22T08:18:58.610Z,1.00
2018-12-22T08:19:58.560Z,1.00
2018-12-22T08:20:58.523Z,1.00
2018-12-22T08:21:58.484Z,0.90
2018-12-22T08:22:58.460Z,1.20
2018-12-22T08:23:58.398Z,1.00
2018-12-22T08:24:58.359Z,0.90
2018-12-22T08:25:58.323Z,1.10
2018-12-22T08:26:58.281Z,1.10
2018-12-22T08:27:58.242Z,1.10
2018-12-22T08:28:58.213Z,0.90
2018-12-22T08:29:58.177Z,1.10
2018-12-22T08:30:58.122Z,0.90
2018-12-22T08:31:58.081Z,0.80
2018-12-22T08:32:58.038Z,0.90
2018-12-22T08:33:57.998Z,1.10
2018-12-22T08:34:57.957Z,1.00
2018-12-22T08:35:57.922Z,1.20
2018-12-22T08:36:57.873Z,1.10
2018-12-22T08:37:57.839Z,1.10
2018-12-22T08:38:57.799Z,1.30
2018-12-22T08:39:57.750Z,1.20
2018-12-22T08:40:57.716Z,1.40
2018-12-22T08:41:57.673Z,1.50
2018-12-22T08:42:57.630Z,1.30
2018-12-22T08:43:57.596Z,1.40
2018-12-22T08:44:57.661Z,1.40
2018-12-22T08:45:57.541Z,1.30
2018-12-22T08:46:57.475Z,1.50
2018-12-22T08:47:57.428Z,1.60
2018-12-22T08:48:57.389Z,2.60
2018-12-22T08:49:57.360Z,2.00
2018-12-22T08:50:57.316Z,1.50
2018-12-22T08:51:57.276Z,1.70
2018-12-22T08:52:57.230Z,2.10
2018-12-22T08:53:57.189Z,2.20
2018-12-22T08:54:57.147Z,1.90
2018-12-22T08:55:57.120Z,1.90
2018-12-22T08:56:57.073Z,1.90
2018-12-22T08:57:57.028Z,2.20
2018-12-22T08:58:56.990Z,2.00
2018-12-22T08:59:56.944Z,2.40
2018-12-22T09:00:56.906Z,2.10
2018-12-22T09:01:56.871Z,2.40
2018-12-22T09:02:56.825Z,2.20
2018-12-22T09:03:56.790Z,2.70
2018-12-22T09:04:56.749Z,2.50
2018-12-22T09:05:56.712Z,2.70
2018-12-22T09:06:56.670Z,2.90
2018-12-22T09:07:56.624Z,2.60
2018-12-22T09:08:56.691Z,2.60
2018-12-22T09:09:56.546Z,2.60
2018-12-22T09:10:56.507Z,3.00
2018-12-22T09:11:56.466Z,2.80
2018-12-22T09:12:56.424Z,2.80
2018-12-22T09:13:56.384Z,3.20
2018-12-22T09:14:56.356Z,2.70
2018-12-22T09:15:56.310Z,2.80
2018-12-22T09:16:56.268Z,3.10
2018-12-22T09:17:56.225Z,3.20
2018-12-22T09:18:56.188Z,3.10
2018-12-22T09:19:56.141Z,2.90
2018-12-22T09:20:56.408Z,3.50
2018-12-22T09:21:56.062Z,3.10
2018-12-22T09:22:56.021Z,3.00
2018-12-22T09:23:55.986Z,3.40
2018-12-22T09:24:55.946Z,3.60
2018-12-22T09:25:55.906Z,3.10
2018-12-22T09:26:55.862Z,3.30
2018-12-22T09:27:55.851Z,3.20
2018-12-22T09:28:55.792Z,3.70
2018-12-22T09:29:55.750Z,3.90
2018-12-22T09:31:00.782Z,3.20
2018-12-22T09:31:55.711Z,3.20
2018-12-22T09:32:55.626Z,3.20
2018-12-22T09:33:55.583Z,3.20
2018-12-22T09:34:55.540Z,3.20
2018-12-22T09:35:55.507Z,3.10
2018-12-22T09:36:55.470Z,3.30
2018-12-22T09:37:55.426Z,3.20
2018-12-22T09:38:55.388Z,3.20
2018-12-22T09:39:55.348Z,3.00
2018-12-22T09:40:55.305Z,3.10
2018-12-22T09:41:55.278Z,3.20
2018-12-22T09:42:55.228Z,3.10
2018-12-22T09:43:55.182Z,3.10
2018-12-22T09:44:55.146Z,3.10
2018-12-22T09:45:55.105Z,3.20
2018-12-22T09:46:55.063Z,3.20
2018-12-22T09:47:55.030Z,2.90
2018-12-22T09:48:54.997Z,3.20
2018-12-22T09:49:54.952Z,3.20
2018-12-22T09:50:54.912Z,2.70
2018-12-22T09:51:54.864Z,2.90
2018-12-22T09:52:54.828Z,3.00
2018-12-22T09:53:54.788Z,2.80
2018-12-22T09:54:54.750Z,3.00
2018-12-22T09:55:54.715Z,2.90
2018-12-22T09:56:54.707Z,3.00
2018-12-22T09:57:54.635Z,3.10
2018-12-22T09:58:54.587Z,3.20
2018-12-22T09:59:54.554Z,3.20
2018-12-22T10:00:54.513Z,2.80
2018-12-22T10:01:54.479Z,2.50
2018-12-22T10:02:54.435Z,3.00
2018-12-22T10:03:54.391Z,2.70
2018-12-22T10:04:54.352Z,2.60
2018-12-22T10:05:54.314Z,2.80
2018-12-22T10:20:07.515Z,2.40
2018-12-22T10:21:07.283Z,2.40
2018-12-22T10:22:07.278Z,2.90
2018-12-22T10:23:07.195Z,3.00
2018-12-22T10:24:07.148Z,3.10
2018-12-22T10:25:07.115Z,3.10
2018-12-22T10:26:07.071Z,2.80
2018-12-22T10:27:07.030Z,2.60
2018-12-22T10:28:06.978Z,2.10
2018-12-22T10:29:06.940Z,2.60
2018-12-22T10:30:06.903Z,2.60
2018-12-22T10:31:06.856Z,2.80
2018-12-22T10:32:06.821Z,2.70
2018-12-22T10:33:06.778Z,2.60
2018-12-22T10:34:06.739Z,3.10
2018-12-22T10:35:06.699Z,2.60
2018-12-22T10:36:06.653Z,2.50
2018-12-22T10:37:06.627Z,2.40
2018-12-22T10:38:06.577Z,2.60
2018-12-22T10:39:06.545Z,2.50
2018-12-22T10:40:06.498Z,2.40
2018-12-22T10:41:06.457Z,2.20
2018-12-22T10:42:06.417Z,2.00
2018-12-22T10:43:06.371Z,2.30
2018-12-22T10:44:06.365Z,2.00
2018-12-22T10:45:06.298Z,2.10
2018-12-22T10:46:06.269Z,2.10
2018-12-22T10:47:06.236Z,3.10
2018-12-22T10:48:06.175Z,2.10
2018-12-22T10:49:06.139Z,2.30
2018-12-22T10:50:06.098Z,2.40
2018-12-22T10:51:06.054Z,1.90
2018-12-22T10:52:06.019Z,2.00
2018-12-22T10:53:05.981Z,2.20
2018-12-22T10:54:05.944Z,2.10
2018-12-22T10:55:05.920Z,2.20
2018-12-22T10:56:05.859Z,2.00
2018-12-22T10:57:05.823Z,2.30
2018-12-22T10:58:05.877Z,2.70
2018-12-22T10:59:05.746Z,2.20
2018-12-22T11:00:05.700Z,2.20
2018-12-22T11:01:05.662Z,2.30
2018-12-22T11:02:05.623Z,2.60
2018-12-22T11:03:05.580Z,2.70
2018-12-22T11:04:05.547Z,2.40
2018-12-22T11:05:05.508Z,2.50
2018-12-22T11:06:05.467Z,2.50
2018-12-22T11:07:05.431Z,2.50
2018-12-22T11:08:05.386Z,2.30
2018-12-22T11:09:05.347Z,2.40
2018-12-22T11:10:05.307Z,2.40
2018-12-22T11:11:05.266Z,2.50
2018-12-22T11:12:05.233Z,2.40
2018-12-22T11:13:05.191Z,2.50
2018-12-22T11:14:05.154Z,2.90
2018-12-22T11:15:05.108Z,2.60
2018-12-22T11:16:05.080Z,2.50
2018-12-22T11:17:05.033Z,2.30
2018-12-22T11:18:04.995Z,2.20
2018-12-22T11:19:04.959Z,2.20
2018-12-22T11:20:04.913Z,2.10
2018-12-22T11:21:04.875Z,2.60
2018-12-22T11:22:05.029Z,2.60
2018-12-22T11:23:04.794Z,2.20
2018-12-22T11:24:04.781Z,2.40
2018-12-22T11:25:04.721Z,2.50
2018-12-22T11:26:04.681Z,2.30
2018-12-22T11:27:04.648Z,2.60
2018-12-22T11:28:04.601Z,2.70
2018-12-22T11:29:04.563Z,2.80
2018-12-22T11:30:04.527Z,2.80
2018-12-22T11:31:04.487Z,2.50
2018-12-22T11:32:04.443Z,2.70
2018-12-22T11:33:04.405Z,2.80
2018-12-22T11:34:04.367Z,2.70
2018-12-22T11:35:04.328Z,2.80
2018-12-22T11:36:04.291Z,2.50
2018-12-22T11:37:04.252Z,2.40
2018-12-22T11:38:04.236Z,2.60
2018-12-22T11:39:04.183Z,2.50
2018-12-22T11:40:04.130Z,2.60
2018-12-22T11:41:04.092Z,2.70
2018-12-22T11:42:04.053Z,3.00
2018-12-22T11:43:04.015Z,2.70
2018-12-22T11:44:03.981Z,2.60
2018-12-22T11:45:03.941Z,2.40
2018-12-22T11:46:03.908Z,2.00
2018-12-22T11:47:03.857Z,2.60
2018-12-22T11:48:03.824Z,2.90
2018-12-22T11:49:03.784Z,2.60
2018-12-22T11:50:03.745Z,2.60
2018-12-22T11:51:03.707Z,2.40
2018-12-22T11:52:03.665Z,2.50
2018-12-22T11:53:03.625Z,3.00
2018-12-22T11:54:03.587Z,2.70
2018-12-22T11:55:03.545Z,2.50
2018-12-22T11:56:03.576Z,2.80
2018-12-22T11:57:03.473Z,2.60
2018-12-22T11:58:03.437Z,2.40
2018-12-22T11:59:03.398Z,2.70
2018-12-22T12:00:03.350Z,2.50
2018-12-22T12:01:03.332Z,2.80
2018-12-22T12:02:09.529Z,2.80
2018-12-22T12:03:03.241Z,2.50
2018-12-22T12:04:03.195Z,2.90
2018-12-22T12:05:03.803Z,2.60
2018-12-22T12:06:03.118Z,2.80
2018-12-22T12:07:03.078Z,4.60
2018-12-22T12:08:03.044Z,5.80
2018-12-22T12:09:03.005Z,5.90
2018-12-22T12:10:02.967Z,3.80
2018-12-22T12:11:02.926Z,6.00
2018-12-22T12:12:02.882Z,9.90
2018-12-22T12:13:02.845Z,6.40
2018-12-22T12:14:02.806Z,11.30
2018-12-22T12:15:02.767Z,6.50
2018-12-22T12:16:02.731Z,22.00
2018-12-22T12:17:02.732Z,10.00
2018-12-22T12:18:02.649Z,5.20
2018-12-22T12:19:02.609Z,3.30
2018-12-22T12:20:02.576Z,3.20
2018-12-22T16:04:12.894Z,3.90
2018-12-22T16:05:12.825Z,4.10
2018-12-22T16:06:12.808Z,3.70
2018-12-22T16:07:12.741Z,4.80
2018-12-22T16:08:12.701Z,4.70
2018-12-22T16:09:12.656Z,4.50
2018-12-22T16:10:12.615Z,4.90
2018-12-22T16:11:12.596Z,4.30
2018-12-22T16:12:12.524Z,4.50
2018-12-22T16:13:12.482Z,4.00
2018-12-22T16:14:12.443Z,3.50
2018-12-22T16:15:12.403Z,4.40
2018-12-22T16:16:12.440Z,4.20
2018-12-22T16:17:12.317Z,4.30
2018-12-22T16:18:12.279Z,3.90
2018-12-22T16:19:12.240Z,4.40
2018-12-22T16:20:12.200Z,5.10
2018-12-22T16:21:12.160Z,4.40
2018-12-22T16:22:12.119Z,3.90
2018-12-22T16:23:12.075Z,4.50
2018-12-22T16:24:12.032Z,4.10
2018-12-22T16:25:12.018Z,4.40
2018-12-22T16:26:11.952Z,4.80
2018-12-22T16:27:11.917Z,5.20
2018-12-22T16:28:11.876Z,4.40
2018-12-22T16:29:11.862Z,4.00
2018-12-22T16:30:11.795Z,4.20
2018-12-22T16:31:11.752Z,4.30
2018-12-22T16:32:11.710Z,4.20
2018-12-22T16:33:11.675Z,4.10
2018-12-22T16:34:11.633Z,4.30
2018-12-22T16:35:11.592Z,3.90
2018-12-22T16:36:11.549Z,4.10
2018-12-22T16:37:11.509Z,3.80
2018-12-22T16:38:11.473Z,3.80
2018-12-22T16:39:11.434Z,4.10
2018-12-22T16:40:11.395Z,4.30
2018-12-22T16:41:11.352Z,4.00
2018-12-22T16:42:11.311Z,3.80
2018-12-22T16:43:11.278Z,3.90
2018-12-22T16:44:11.234Z,4.30
2018-12-22T16:45:11.193Z,3.70
2018-12-22T16:46:11.156Z,3.80
2018-12-22T16:47:11.110Z,4.00
2018-12-22T16:48:11.071Z,4.00
2018-12-22T16:49:11.122Z,3.20
2018-12-22T16:50:10.996Z,3.70
2018-12-22T16:51:10.952Z,4.00
2018-12-22T16:52:10.931Z,4.30
2018-12-22T16:53:10.875Z,4.10
2018-12-22T16:54:10.830Z,4.50
2018-12-22T16:55:10.796Z,4.10
2018-12-22T16:56:10.754Z,4.40
2018-12-22T16:57:10.714Z,3.70
2018-12-22T16:58:10.681Z,4.20
2018-12-22T16:59:10.632Z,4.30
2018-12-22T17:00:10.592Z,4.20
2018-12-22T17:01:10.553Z,4.70
2018-12-22T17:02:10.510Z,4.80
2018-12-22T17:03:11.111Z,4.20
2018-12-22T17:04:10.435Z,5.20
2018-12-22T17:05:10.393Z,5.60
2018-12-22T17:06:10.351Z,5.90
2018-12-22T17:07:10.319Z,6.80
2018-12-22T17:08:10.277Z,13.20
2018-12-22T17:09:11.120Z,25.50
2018-12-22T17:10:10.199Z,20.90
2018-12-22T17:11:10.224Z,10.30
2018-12-22T17:12:10.116Z,5.20
2018-12-22T17:13:10.076Z,4.80
2018-12-22T17:14:10.034Z,4.70
2018-12-22T17:15:10.001Z,4.30
2018-12-22T17:16:09.958Z,4.20
2018-12-22T17:17:09.919Z,5.10
2018-12-22T17:18:09.882Z,5.30
2018-12-22T17:19:09.835Z,5.10
2018-12-22T17:20:09.798Z,4.80
2018-12-22T17:21:09.768Z,4.70
2018-12-22T17:22:09.790Z,5.20
2018-12-22T17:23:09.678Z,4.80
2018-12-22T17:24:09.742Z,5.20
2018-12-22T17:25:09.599Z,4.60
2018-12-22T17:26:09.560Z,4.60
2018-12-22T17:27:09.525Z,5.00
2018-12-22T17:28:09.504Z,4.40
2018-12-22T17:29:09.612Z,4.90
2018-12-22T17:30:09.407Z,5.00
2018-12-22T17:31:09.359Z,5.40
2018-12-22T17:32:09.322Z,4.60
2018-12-22T17:33:09.527Z,4.50
2018-12-22T17:34:09.312Z,4.70
2018-12-22T17:35:09.311Z,4.20
2018-12-22T17:36:09.182Z,3.50
2018-12-22T17:37:09.134Z,4.20
2018-12-22T17:38:09.165Z,4.20
2018-12-22T17:39:09.070Z,4.30
2018-12-22T17:40:09.632Z,4.00
2018-12-22T17:41:08.971Z,4.30
2018-12-22T17:42:08.928Z,4.00
2018-12-22T17:43:08.883Z,4.00
2018-12-22T17:44:08.903Z,4.60
2018-12-22T17:45:08.809Z,4.70
2018-12-22T17:46:08.767Z,4.20
2018-12-22T17:47:08.733Z,4.40
2018-12-22T17:48:08.686Z,4.30
2018-12-22T17:49:08.647Z,4.00
2018-12-22T17:50:08.609Z,5.00
2018-12-22T17:51:08.566Z,4.60
2018-12-22T17:52:08.525Z,4.50
2018-12-22T17:53:08.488Z,4.50
2018-12-22T17:54:08.450Z,4.90
2018-12-22T17:55:08.410Z,4.70
2018-12-22T17:56:08.365Z,4.80
2018-12-22T17:57:08.326Z,4.50
2018-12-22T17:58:08.285Z,3.90
2018-12-22T17:59:08.250Z,4.20
2018-12-22T18:00:08.208Z,3.90
2018-12-22T18:01:08.170Z,4.10
2018-12-22T18:02:08.131Z,4.10
2018-12-22T18:03:08.085Z,4.00
2018-12-22T18:04:08.047Z,3.30
2018-12-22T18:05:08.008Z,3.30
2018-12-22T18:06:07.965Z,3.20
2018-12-22T18:07:07.932Z,4.30
2018-12-22T18:08:07.892Z,3.40
2018-12-22T18:09:07.848Z,4.20
2018-12-22T18:10:07.806Z,4.00
2018-12-22T18:11:07.772Z,3.80
2018-12-22T18:12:07.730Z,3.30
2018-12-22T18:13:07.691Z,3.60
2018-12-22T18:14:07.656Z,3.50
2018-12-22T18:15:07.609Z,3.80
2018-12-22T18:16:07.568Z,3.70
2018-12-22T18:17:07.529Z,4.00
2018-12-22T18:18:07.488Z,4.30
2018-12-22T18:19:07.456Z,3.80
2018-12-22T18:20:07.411Z,3.60
2018-12-22T18:21:07.371Z,4.40
2018-12-22T18:22:07.333Z,4.40
2018-12-22T18:23:07.288Z,4.10
2018-12-22T18:24:07.249Z,6.00
2018-12-22T18:25:07.210Z,5.20
2018-12-22T18:26:07.173Z,4.20
2018-12-22T18:27:07.129Z,3.80
2018-12-22T18:28:07.088Z,4.90
2018-12-22T18:29:07.065Z,4.70
2018-12-22T18:30:07.010Z,5.60
2018-12-22T18:31:06.973Z,5.00
2018-12-22T18:32:06.931Z,5.00
2018-12-22T18:33:06.892Z,4.60
2018-12-22T18:34:15.508Z,5.50
2018-12-22T18:36:11.269Z,4.90
2018-12-22T18:37:11.253Z,5.20
2018-12-22T18:38:11.293Z,4.70
2018-12-22T18:39:11.143Z,3.90
2018-12-22T18:40:11.086Z,3.80
2018-12-22T18:41:11.044Z,4.80
2018-12-22T18:42:11.004Z,4.30
2018-12-22T18:43:11.063Z,3.90
2018-12-22T18:44:10.920Z,3.80
2018-12-22T18:45:10.890Z,4.30
2018-12-22T18:46:10.841Z,4.90
2018-12-22T18:47:10.800Z,5.10
2018-12-22T18:48:10.768Z,5.50
2018-12-22T18:49:10.724Z,7.80
2018-12-22T18:50:10.684Z,5.50
2018-12-22T18:51:10.652Z,5.80
2018-12-22T18:52:10.600Z,4.20
2018-12-22T18:53:10.564Z,4.60
2018-12-22T18:54:10.524Z,4.00
2018-12-22T18:55:10.486Z,5.10
2018-12-22T18:56:10.442Z,4.50
2018-12-22T18:57:10.402Z,4.80